Time;durP1;ratioP1;P1;durP2;ratioP2;P2;SDS_P1;SDS_P2;PMS_P1;PMS_P2;Temp;Humidity;BMP_temperature;BMP_pressure;BME280_temperature;BME280_humidity;BME280_pressure;Samples;Min_cycle;Max_cycle;Signal;HPM_P1;HPM_P2
2023/03/02 00:01:27;;;;;;;42.30;30.42;;;2.90;99.90;;;;;;5060123;28;20041;-68
2023/03/02 00:03:57;;;;;;;43.40;31.65;;;2.90;99.90;;;;;;5051243;28;20401;-67
2023/03/02 00:06:24;;;;;;;44.67;31.80;;;2.90;99.90;;;;;;5063696;28;20059;-67
2023/03/02 00:08:50;;;;;;;43.60;31.88;;;2.90;99.90;;;;;;5048916;28;20041;-68
2023/03/02 00:11:15;;;;;;;42.72;31.98;;;3.00;99.90;;;;;;5062933;28;20568;-67
2023/03/02 00:13:42;;;;;;;40.38;30.83;;;2.90;99.90;;;;;;5042747;28;20079;-67
2023/03/02 00:16:08;;;;;;;39.92;30.33;;;2.90;99.90;;;;;;5047793;28;20041;-67
2023/03/02 00:18:34;;;;;;;41.55;30.30;;;2.90;99.90;;;;;;5048431;28;20039;-67
2023/03/02 00:21:00;;;;;;;40.15;30.30;;;2.80;99.90;;;;;;5063704;28;20562;-68
2023/03/02 00:23:26;;;;;;;35.13;27.80;;;2.80;99.90;;;;;;5041512;28;20040;-67
2023/03/02 00:25:52;;;;;;;38.35;28.70;;;2.80;99.90;;;;;;5056677;28;20060;-67
2023/03/02 00:28:18;;;;;;;39.35;29.10;;;2.80;99.90;;;;;;5048311;28;21798;-67
2023/03/02 00:30:43;;;;;;;39.95;29.13;;;2.70;99.90;;;;;;5063444;28;20412;-67
2023/03/02 00:33:09;;;;;;;38.95;28.02;;;2.80;99.90;;;;;;5039294;28;20051;-67
2023/03/02 00:35:40;;;;;;;40.85;29.25;;;2.80;99.90;;;;;;5030398;28;20448;-67
2023/03/02 00:38:06;;;;;;;41.17;29.30;;;2.80;99.90;;;;;;5060260;28;20488;-67
2023/03/02 00:40:33;;;;;;;40.58;29.95;;;2.80;99.90;;;;;;5047030;28;20098;-67
2023/03/02 00:42:59;;;;;;;42.85;31.48;;;2.70;99.90;;;;;;5045203;28;20122;-67
2023/03/02 00:45:24;;;;;;;44.50;31.98;;;2.70;99.90;;;;;;5043275;28;20085;-67
2023/03/02 00:47:50;;;;;;;41.13;30.08;;;2.70;99.90;;;;;;5049868;28;20041;-68
2023/03/02 00:50:16;;;;;;;43.28;30.55;;;2.60;99.90;;;;;;5062284;28;20059;-67
2023/03/02 00:52:42;;;;;;;42.95;31.63;;;2.60;99.90;;;;;;5046517;28;20076;-67
2023/03/02 00:55:08;;;;;;;39.35;29.88;;;2.60;99.90;;;;;;5046588;28;20125;-67
2023/03/02 00:57:34;;;;;;;46.35;33.08;;;2.60;99.90;;;;;;5053626;28;20045;-67
2023/03/02 00:59:59;;;;;;;47.03;33.72;;;2.60;99.90;;;;;;5060441;28;20043;-68
2023/03/02 01:02:25;;;;;;;47.80;34.13;;;2.60;99.90;;;;;;5064450;28;20040;-68
2023/03/02 01:04:54;;;;;;;49.28;34.80;;;2.60;99.90;;;;;;5059353;28;20040;-67
2023/03/02 01:07:21;;;;;;;49.97;34.97;;;2.60;99.90;;;;;;5062259;28;20333;-67
2023/03/02 01:09:49;;;;;;;50.92;35.75;;;2.60;99.90;;;;;;5064666;28;20052;-67
2023/03/02 01:12:15;;;;;;;50.88;35.28;;;2.60;99.90;;;;;;5068731;28;20051;-67
2023/03/02 01:14:45;;;;;;;45.38;33.17;;;2.70;99.90;;;;;;5061613;28;20068;-67
2023/03/02 01:17:12;;;;;;;49.67;35.53;;;2.70;99.90;;;;;;5045083;28;20044;-67
2023/03/02 01:19:39;;;;;;;48.33;34.97;;;2.70;99.90;;;;;;5048270;28;20421;-67
2023/03/02 01:22:05;;;;;;;52.50;35.60;;;2.60;99.90;;;;;;5057012;28;20055;-67
2023/03/02 01:24:31;;;;;;;51.10;34.67;;;2.70;99.90;;;;;;5058482;28;20052;-67
2023/03/02 01:26:57;;;;;;;52.20;36.30;;;2.60;99.90;;;;;;5061227;28;20562;-66
2023/03/02 01:29:22;;;;;;;55.92;38.40;;;2.60;99.90;;;;;;5063895;28;20040;-67
2023/03/02 01:31:48;;;;;;;55.72;37.35;;;2.60;99.90;;;;;;5042137;28;20040;-66
2023/03/02 01:34:14;;;;;;;54.60;37.80;;;2.60;99.90;;;;;;5055130;28;20086;-67
2023/03/02 01:36:44;;;;;;;56.08;38.88;;;2.60;99.90;;;;;;5065284;28;20458;-66
2023/03/02 01:39:14;;;;;;;54.72;37.15;;;2.60;99.90;;;;;;5056086;28;20079;-67
2023/03/02 01:41:44;;;;;;;51.22;36.55;;;2.60;99.90;;;;;;5064335;28;20179;-67
2023/03/02 01:44:42;;;;;;;52.33;35.28;;;2.50;99.90;;;;;;5066820;28;20049;-67
2023/03/02 01:47:24;;;;;;;55.75;36.55;;;2.50;99.90;;;;;;5056317;28;20549;-67
2023/03/02 01:50:21;;;;;;;50.63;34.90;;;2.50;99.90;;;;;;5071058;28;20040;-66
2023/03/02 01:52:48;;;;;;;53.42;35.55;;;2.40;99.90;;;;;;5049125;28;20167;-67
2023/03/02 01:55:18;;;;;;;48.30;33.97;;;2.40;99.90;;;;;;5045577;28;20143;-67
2023/03/02 01:57:46;;;;;;;49.92;34.08;;;2.40;99.90;;;;;;5078573;28;20036;-66
2023/03/02 02:00:20;;;;;;;44.85;33.13;;;2.30;99.90;;;;;;5054901;28;20040;-67
2023/03/02 02:02:47;;;;;;;46.95;34.45;;;2.40;99.90;;;;;;5063749;28;20040;-67
2023/03/02 02:05:20;;;;;;;47.08;33.03;;;2.30;99.90;;;;;;5053068;28;20485;-67
2023/03/02 02:07:46;;;;;;;46.03;32.95;;;2.30;99.90;;;;;;5052419;28;20492;-67
2023/03/02 02:10:13;;;;;;;50.10;34.28;;;2.30;99.90;;;;;;5055200;28;20052;-67
2023/03/02 02:12:39;;;;;;;47.22;32.47;;;2.30;99.90;;;;;;5038571;28;20067;-67
2023/03/02 02:15:05;;;;;;;50.53;34.47;;;2.20;99.90;;;;;;5047684;28;20037;-67
2023/03/02 02:17:32;;;;;;;40.03;27.40;;;2.20;99.90;;;;;;5053397;28;20044;-67
2023/03/02 02:20:06;;;;;;;52.00;34.42;;;2.20;99.90;;;;;;5064245;28;20041;-67
2023/03/02 02:22:42;;;;;;;44.78;31.35;;;2.20;99.90;;;;;;5067240;28;20044;-67
2023/03/02 02:25:38;;;;;;;48.70;33.97;;;2.20;99.90;;;;;;5072556;28;20040;-67
2023/03/02 02:28:08;;;;;;;49.42;33.53;;;2.20;99.90;;;;;;5070898;28;20071;-67
2023/03/02 02:30:36;;;;;;;48.03;32.80;;;2.10;99.90;;;;;;5062176;28;20037;-67
2023/03/02 02:33:04;;;;;;;51.47;35.03;;;2.10;99.90;;;;;;5071194;28;20040;-67
2023/03/02 02:35:33;;;;;;;51.45;33.88;;;2.00;99.90;;;;;;5047744;28;20441;-67
2023/03/02 02:38:05;;;;;;;54.28;35.47;;;2.10;99.90;;;;;;5062728;28;20627;-67
2023/03/02 02:40:56;;;;;;;57.28;35.47;;;2.10;99.90;;;;;;5048648;28;20036;-67
2023/03/02 02:43:22;;;;;;;50.90;34.95;;;2.10;99.90;;;;;;5072119;28;20131;-67
2023/03/02 02:45:54;;;;;;;54.33;32.95;;;2.10;99.90;;;;;;5055577;28;20059;-67
2023/03/02 02:48:23;;;;;;;51.97;34.08;;;2.10;99.90;;;;;;5053858;28;20391;-67
2023/03/02 02:50:58;;;;;;;53.00;34.00;;;2.00;99.90;;;;;;5063088;28;20061;-67
2023/03/02 02:53:29;;;;;;;53.10;35.10;;;2.00;99.90;;;;;;5062753;28;20189;-67
2023/03/02 02:55:56;;;;;;;50.03;32.67;;;2.00;99.90;;;;;;5085552;28;20033;-67
2023/03/02 02:58:38;;;;;;;51.50;35.13;;;2.00;99.90;;;;;;5059040;28;20068;-67
2023/03/02 03:01:05;;;;;;;52.95;34.70;;;2.00;99.90;;;;;;5050722;28;20041;-67
2023/03/02 03:03:36;;;;;;;50.40;34.72;;;2.10;99.90;;;;;;5034062;28;20048;-67
2023/03/02 03:06:11;;;;;;;52.00;34.15;;;2.00;99.90;;;;;;5058768;28;20071;-67
2023/03/02 03:08:40;;;;;;;;;;;2.00;99.90;;;;;;5054385;28;20445;-67
2023/03/02 03:11:06;;;;;;;48.42;32.03;;;2.00;99.90;;;;;;5065433;28;20010;-67
2023/03/02 03:13:32;;;;;;;50.03;34.80;;;2.00;99.90;;;;;;5064475;28;20124;-67
2023/03/02 03:15:59;;;;;;;52.83;34.03;;;2.00;99.90;;;;;;5061680;28;20056;-66
2023/03/02 03:18:25;;;;;;;52.70;33.85;;;2.00;99.90;;;;;;5047704;28;20044;-66
2023/03/02 03:20:51;;;;;;;52.05;34.90;;;2.00;99.90;;;;;;5063099;28;20389;-67
2023/03/02 03:23:16;;;;;;;50.15;32.65;;;2.00;99.90;;;;;;5065412;28;20112;-67
2023/03/02 03:25:42;;;;;;;52.03;32.60;;;2.00;99.90;;;;;;5048004;28;20043;-67
2023/03/02 03:28:08;;;;;;;46.38;32.60;;;2.00;99.90;;;;;;5068581;28;20416;-67
2023/03/02 03:30:33;;;;;;;50.35;32.38;;;2.00;99.90;;;;;;5066666;28;20083;-67
2023/03/02 03:32:59;;;;;;;48.70;33.03;;;1.90;99.90;;;;;;5067130;28;20029;-67
2023/03/02 03:35:25;;;;;;;50.63;33.40;;;2.00;99.90;;;;;;5059625;28;20033;-67
2023/03/02 03:37:50;;;;;;;52.72;34.92;;;1.90;99.90;;;;;;5063755;28;20032;-67
2023/03/02 03:40:16;;;;;;;49.33;32.92;;;2.00;99.90;;;;;;5035816;28;20036;-67
2023/03/02 03:42:42;;;;;;;47.10;31.42;;;1.90;99.90;;;;;;5060490;28;20040;-67
2023/03/02 03:45:08;;;;;;;48.03;31.00;;;1.90;99.90;;;;;;5063148;28;20075;-67
2023/03/02 03:47:34;;;;;;;52.20;32.78;;;1.90;99.90;;;;;;5051780;28;20126;-67
2023/03/02 03:50:00;;;;;;;50.85;32.53;;;1.90;99.90;;;;;;5067072;28;20086;-67
2023/03/02 03:52:32;;;;;;;51.72;32.92;;;1.80;99.90;;;;;;5050639;28;20056;-67
2023/03/02 03:54:59;;;;;;;52.65;33.50;;;1.90;99.90;;;;;;5044060;28;20119;-67
2023/03/02 03:57:26;;;;;;;50.88;32.40;;;1.80;99.90;;;;;;5067740;28;20489;-67
2023/03/02 03:59:52;;;;;;;52.92;33.90;;;1.80;99.90;;;;;;5048180;28;20043;-67
2023/03/02 04:02:19;;;;;;;52.13;31.35;;;1.80;99.90;;;;;;5064207;28;20125;-67
2023/03/02 04:04:45;;;;;;;52.88;33.42;;;1.80;99.90;;;;;;5044010;28;20053;-67
2023/03/02 04:07:12;;;;;;;57.08;32.08;;;1.80;99.90;;;;;;5062322;28;20064;-67
2023/03/02 04:09:38;;;;;;;56.95;33.90;;;1.80;99.90;;;;;;5050307;28;20064;-67
2023/03/02 04:12:06;;;;;;;62.15;35.20;;;1.70;99.90;;;;;;5062668;28;20113;-67
2023/03/02 04:14:31;;;;;;;52.42;32.20;;;1.70;99.90;;;;;;5057370;28;20116;-67
2023/03/02 04:16:57;;;;;;;59.53;34.50;;;1.70;99.90;;;;;;5061107;28;20120;-67
2023/03/02 04:19:24;;;;;;;66.30;33.65;;;1.70;99.90;;;;;;5044208;28;20134;-67
2023/03/02 04:21:52;;;;;;;74.07;35.72;;;1.70;99.90;;;;;;5061644;28;20059;-67
2023/03/02 04:24:20;;;;;;;61.15;33.30;;;1.60;99.90;;;;;;5061721;28;20040;-67
2023/03/02 04:26:47;;;;;;;71.55;33.83;;;1.70;99.90;;;;;;5076161;28;20120;-67
2023/03/02 04:29:14;;;;;;;61.35;32.72;;;1.60;99.90;;;;;;5067919;28;20044;-67
2023/03/02 04:31:40;;;;;;;68.72;32.65;;;1.60;99.90;;;;;;5040727;28;20053;-67
2023/03/02 04:34:07;;;;;;;57.28;30.73;;;1.50;99.90;;;;;;5050341;28;20492;-67
2023/03/02 04:36:36;;;;;;;51.17;29.13;;;1.50;99.90;;;;;;5062915;28;20476;-67
2023/03/02 04:39:03;;;;;;;53.03;29.15;;;1.60;99.90;;;;;;5062104;28;20380;-68
2023/03/02 04:41:29;;;;;;;61.33;31.27;;;1.50;99.90;;;;;;5059367;28;20040;-67
2023/03/02 04:43:55;;;;;;;55.00;30.90;;;1.50;99.90;;;;;;5044153;28;20055;-67
2023/03/02 04:46:24;;;;;;;65.93;32.50;;;1.40;99.90;;;;;;5044769;28;20049;-67
2023/03/02 04:48:49;;;;;;;73.75;33.38;;;1.50;99.90;;;;;;5061046;28;20085;-67
2023/03/02 04:51:28;;;;;;;60.17;31.35;;;1.40;99.90;;;;;;5057729;28;20041;-67
2023/03/02 04:54:00;;;;;;;56.58;29.35;;;1.50;99.90;;;;;;5060865;28;20055;-67
2023/03/02 04:56:26;;;;;;;63.55;30.42;;;1.40;99.90;;;;;;5051786;28;20040;-68
2023/03/02 04:58:52;;;;;;;56.13;29.83;;;1.40;99.90;;;;;;5062106;28;20066;-68
2023/03/02 05:01:18;;;;;;;61.95;32.08;;;1.40;99.90;;;;;;5041186;28;20476;-67
2023/03/02 05:03:44;;;;;;;62.05;30.27;;;1.40;99.90;;;;;;5059475;28;20048;-67
2023/03/02 05:06:10;;;;;;;66.72;30.98;;;1.40;99.90;;;;;;5062431;28;20044;-67
2023/03/02 05:08:36;;;;;;;60.35;32.53;;;1.40;99.90;;;;;;5050406;28;20036;-67
2023/03/02 05:11:03;;;;;;;67.28;30.60;;;1.40;99.90;;;;;;5049843;28;20131;-67
2023/03/02 05:13:29;;;;;;;77.38;32.05;;;1.40;99.90;;;;;;5064402;28;20048;-67
2023/03/02 05:15:56;;;;;;;109.82;36.03;;;1.40;99.90;;;;;;5060249;28;20048;-67
2023/03/02 05:18:23;;;;;;;71.38;33.65;;;1.40;99.90;;;;;;5050954;28;20040;-67
2023/03/02 05:20:49;;;;;;;70.43;32.35;;;1.40;99.90;;;;;;5048325;28;20048;-66
2023/03/02 05:23:22;;;;;;;92.38;34.55;;;1.40;99.90;;;;;;5066473;28;20043;-67
2023/03/02 05:25:53;;;;;;;78.05;31.63;;;1.40;99.90;;;;;;5061548;28;20040;-67
2023/03/02 05:28:19;;;;;;;66.82;30.90;;;1.40;99.90;;;;;;5041970;28;20102;-67
2023/03/02 05:30:45;;;;;;;61.95;29.65;;;1.40;99.90;;;;;;5046408;28;20044;-66
2023/03/02 05:33:11;;;;;;;58.80;29.95;;;1.30;99.90;;;;;;5043641;28;20165;-67
2023/03/02 05:35:37;;;;;;;80.75;31.13;;;1.30;99.90;;;;;;5031283;28;20048;-67
2023/03/02 05:38:04;;;;;;;71.22;30.70;;;1.20;99.90;;;;;;5060116;28;20116;-67
2023/03/02 05:40:30;;;;;;;74.18;29.02;;;1.20;99.90;;;;;;5060758;28;20052;-67
2023/03/02 05:42:56;;;;;;;63.55;28.80;;;1.20;99.90;;;;;;5061739;28;20045;-66
2023/03/02 05:45:25;;;;;;;76.55;29.00;;;1.20;99.90;;;;;;5060632;28;20541;-67
2023/03/02 05:47:51;;;;;;;81.97;30.58;;;1.20;99.90;;;;;;5058415;28;20207;-65
2023/03/02 05:50:17;;;;;;;70.30;29.20;;;1.10;99.90;;;;;;5057702;28;20152;-66
2023/03/02 05:52:46;;;;;;;66.50;28.23;;;1.10;99.90;;;;;;5054903;28;20060;-66
2023/03/02 05:55:14;;;;;;;116.78;32.90;;;1.10;99.90;;;;;;5063696;28;21798;-66
2023/03/02 05:57:40;;;;;;;122.22;35.08;;;1.10;99.90;;;;;;5072635;28;20097;-66
2023/03/02 06:00:07;;;;;;;83.43;31.95;;;1.10;99.90;;;;;;5066846;28;20040;-66
2023/03/02 06:02:33;;;;;;;179.60;37.53;;;1.00;99.90;;;;;;5084699;28;20062;-66
2023/03/02 06:04:58;;;;;;;118.30;34.78;;;1.10;99.90;;;;;;5085836;28;20048;-66
2023/03/02 06:07:26;;;;;;;93.68;35.15;;;1.10;99.90;;;;;;5080625;28;20440;-66
2023/03/02 06:09:52;;;;;;;133.82;37.70;;;1.10;99.90;;;;;;5078099;28;20075;-66
2023/03/02 06:12:17;;;;;;;119.13;36.03;;;1.10;99.90;;;;;;5081060;28;20071;-66
2023/03/02 06:14:43;;;;;;;98.63;34.58;;;1.10;99.90;;;;;;5060519;28;20048;-66
2023/03/02 06:17:09;;;;;;;129.60;37.78;;;1.10;99.90;;;;;;5078412;28;20032;-67
2023/03/02 06:19:35;;;;;;;91.25;34.42;;;1.10;99.90;;;;;;5075641;28;20048;-66
2023/03/02 06:22:02;;;;;;;197.68;41.25;;;1.20;99.90;;;;;;5063804;28;20074;-66
2023/03/02 06:24:27;;;;;;;124.07;35.10;;;1.10;99.90;;;;;;5085986;28;20042;-66
2023/03/02 06:26:53;;;;;;;93.50;34.75;;;1.20;99.90;;;;;;5087047;28;20040;-65
2023/03/02 06:29:20;;;;;;;96.20;35.83;;;1.20;99.90;;;;;;5065008;28;20096;-66
2023/03/02 06:31:46;;;;;;;153.55;38.90;;;1.20;99.90;;;;;;5071460;28;20051;-66
2023/03/02 06:34:12;;;;;;;108.60;37.10;;;1.20;99.90;;;;;;5085735;28;20158;-66
2023/03/02 06:36:37;;;;;;;151.15;37.72;;;1.10;99.90;;;;;;5083634;28;20033;-66
2023/03/02 06:39:05;;;;;;;174.98;40.60;;;1.10;99.90;;;;;;5091576;28;20060;-66
2023/03/02 06:41:32;;;;;;;104.97;37.13;;;1.10;99.90;;;;;;5072602;28;20097;-66
2023/03/02 06:43:59;;;;;;;117.20;33.58;;;1.10;99.90;;;;;;5076329;28;20071;-66
2023/03/02 06:46:25;;;;;;;166.05;39.38;;;1.10;99.90;;;;;;5078992;28;20036;-66
2023/03/02 06:48:50;;;;;;;102.40;33.85;;;1.10;99.90;;;;;;5063439;28;20047;-66
2023/03/02 06:51:16;;;;;;;160.73;37.22;;;1.10;99.90;;;;;;5084504;28;20083;-66
2023/03/02 06:53:42;;;;;;;110.80;34.15;;;1.10;99.90;;;;;;5066807;28;20048;-67
2023/03/02 06:56:08;;;;;;;150.85;36.38;;;1.10;99.90;;;;;;5063032;28;20067;-66
2023/03/02 06:58:34;;;;;;;137.88;36.95;;;1.00;99.90;;;;;;5071917;28;20040;-66
2023/03/02 07:01:00;;;;;;;147.52;35.83;;;1.10;99.90;;;;;;5087507;28;20032;-66
2023/03/02 07:03:26;;;;;;;124.28;33.08;;;1.00;99.90;;;;;;5081394;28;20043;-67
2023/03/02 07:05:52;;;;;;;114.88;35.72;;;1.00;99.90;;;;;;5063585;28;20077;-66
2023/03/02 07:08:18;;;;;;;188.13;39.75;;;1.00;99.90;;;;;;5065638;28;20047;-66
2023/03/02 07:10:43;;;;;;;127.82;36.97;;;1.00;99.90;;;;;;5067682;28;20039;-66
2023/03/02 07:13:09;;;;;;;120.80;34.45;;;1.00;99.90;;;;;;5069112;28;20036;-66
2023/03/02 07:15:38;;;;;;;159.98;37.17;;;1.00;99.90;;;;;;5071406;28;20615;-66
2023/03/02 07:18:04;;;;;;;197.10;38.15;;;1.00;99.90;;;;;;5074550;28;20072;-66
2023/03/02 07:20:29;;;;;;;159.93;36.45;;;1.00;99.90;;;;;;5066313;28;20508;-66
2023/03/02 07:22:56;;;;;;;146.73;36.65;;;0.90;99.90;;;;;;5070811;28;20047;-66
2023/03/02 07:25:22;;;;;;;133.90;34.30;;;0.90;99.90;;;;;;5085007;28;20072;-66
2023/03/02 07:27:48;;;;;;;115.85;34.85;;;0.90;99.90;;;;;;5083752;28;20106;-66
2023/03/02 07:30:14;;;;;;;158.18;36.25;;;0.90;99.90;;;;;;5086688;28;20073;-66
2023/03/02 07:32:40;;;;;;;90.72;31.38;;;1.00;99.90;;;;;;5069291;28;20546;-67
2023/03/02 07:35:06;;;;;;;112.85;34.67;;;1.00;99.90;;;;;;5080472;28;20032;-67
2023/03/02 07:37:32;;;;;;;110.10;33.42;;;1.00;99.90;;;;;;5068382;28;20051;-67
2023/03/02 07:39:58;;;;;;;98.10;32.90;;;0.90;99.90;;;;;;5071791;28;20032;-67
2023/03/02 07:42:24;;;;;;;90.35;32.55;;;1.00;99.90;;;;;;5074501;28;20044;-67
2023/03/02 07:44:52;;;;;;;73.07;31.20;;;1.00;99.90;;;;;;5071239;28;20500;-67
2023/03/02 07:47:17;;;;;;;102.38;32.17;;;1.00;99.90;;;;;;5087975;28;20044;-67
2023/03/02 07:49:44;;;;;;;84.70;33.13;;;1.10;99.90;;;;;;5057103;28;20048;-67
2023/03/02 07:52:10;;;;;;;71.13;30.02;;;1.10;99.90;;;;;;5079518;28;20040;-66
2023/03/02 07:54:36;;;;;;;89.45;32.35;;;1.10;99.90;;;;;;5081523;28;20048;-66
2023/03/02 07:57:02;;;;;;;88.45;33.08;;;1.10;99.90;;;;;;5070036;28;20040;-66
2023/03/02 07:59:28;;;;;;;80.00;32.65;;;1.10;99.90;;;;;;5059418;28;20094;-66
2023/03/02 08:01:56;;;;;;;68.70;30.08;;;1.20;99.90;;;;;;5063144;28;20798;-66
2023/03/02 08:04:23;;;;;;;62.80;29.50;;;1.20;99.90;;;;;;5083832;28;20101;-66
2023/03/02 08:06:48;;;;;;;64.85;29.50;;;1.30;99.90;;;;;;5084697;28;20123;-67
2023/03/02 08:09:15;;;;;;;76.25;30.83;;;1.30;99.90;;;;;;5067717;28;20123;-67
2023/03/02 08:11:41;;;;;;;58.30;28.98;;;1.40;99.90;;;;;;5085085;28;20507;-66
2023/03/02 08:14:07;;;;;;;58.72;28.15;;;1.40;99.90;;;;;;5067037;28;20063;-66
2023/03/02 08:16:33;;;;;;;60.03;30.20;;;1.40;99.90;;;;;;5061068;28;20072;-66
2023/03/02 08:18:59;;;;;;;65.10;29.13;;;1.50;99.90;;;;;;5087286;28;20106;-66
2023/03/02 08:21:26;;;;;;;58.85;30.48;;;1.50;99.90;;;;;;5085427;28;20051;-67
2023/03/02 08:23:52;;;;;;;53.25;28.45;;;1.50;99.90;;;;;;5080499;28;20131;-67
2023/03/02 08:26:18;;;;;;;62.83;28.30;;;1.50;99.90;;;;;;5086316;28;20097;-67
2023/03/02 08:28:44;;;;;;;62.60;29.98;;;1.60;99.90;;;;;;5082975;28;20040;-66
2023/03/02 08:31:11;;;;;;;54.72;28.52;;;1.60;99.90;;;;;;5069313;28;20103;-67
2023/03/02 08:33:37;;;;;;;53.28;27.00;;;1.60;99.90;;;;;;5082556;28;20555;-67
2023/03/02 08:36:05;;;;;;;62.28;29.83;;;1.60;99.90;;;;;;5063644;28;20036;-67
2023/03/02 08:38:32;;;;;;;56.13;27.50;;;1.70;99.90;;;;;;5078352;28;20060;-67
2023/03/02 08:41:01;;;;;;;52.05;25.70;;;1.70;99.90;;;;;;5075093;28;20040;-67
2023/03/02 08:43:27;;;;;;;49.03;26.80;;;1.70;99.90;;;;;;5054281;28;20619;-67
2023/03/02 08:45:56;;;;;;;44.45;25.38;;;1.70;99.90;;;;;;5082494;28;20136;-67
2023/03/02 08:48:23;;;;;;;45.30;25.08;;;1.70;99.90;;;;;;5062768;28;20047;-67
2023/03/02 08:51:06;;;;;;;38.95;23.45;;;1.60;99.90;;;;;;5078534;28;20074;-67
2023/03/02 08:53:35;;;;;;;38.28;23.85;;;1.60;99.90;;;;;;5083720;28;20056;-67
2023/03/02 08:56:02;;;;;;;38.35;25.10;;;1.70;99.90;;;;;;5065785;28;20089;-67
2023/03/02 08:58:28;;;;;;;52.17;24.98;;;1.70;99.90;;;;;;5073773;28;20097;-67
2023/03/02 09:00:54;;;;;;;38.67;24.33;;;1.70;99.90;;;;;;5077788;28;20413;-67
2023/03/02 09:03:20;;;;;;;40.08;23.63;;;1.80;99.90;;;;;;5061843;28;20169;-66
2023/03/02 09:05:46;;;;;;;39.35;23.52;;;1.80;99.90;;;;;;5080641;28;20050;-66
2023/03/02 09:08:12;;;;;;;40.50;23.92;;;1.80;99.90;;;;;;5067991;28;20044;-66
2023/03/02 09:10:38;;;;;;;37.45;23.23;;;1.90;99.90;;;;;;5081577;28;20039;-66
2023/03/02 09:13:04;;;;;;;33.55;22.63;;;1.90;99.90;;;;;;5080953;28;20040;-66
2023/03/02 09:15:30;;;;;;;35.83;23.38;;;1.90;99.90;;;;;;5069585;28;20036;-66
2023/03/02 09:17:56;;;;;;;36.92;23.60;;;2.00;99.90;;;;;;5067707;28;20117;-67
2023/03/02 09:20:22;;;;;;;34.88;22.88;;;2.10;99.90;;;;;;5059378;28;20385;-67
2023/03/02 09:22:49;;;;;;;34.67;23.60;;;2.10;99.90;;;;;;5065445;28;20139;-68
2023/03/02 09:25:17;;;;;;;33.67;23.42;;;2.10;99.90;;;;;;5081794;28;20070;-67
2023/03/02 09:27:44;;;;;;;36.88;23.80;;;2.10;99.90;;;;;;5070212;28;20047;-67
2023/03/02 09:30:11;;;;;;;36.42;23.80;;;2.10;99.90;;;;;;5067037;28;20085;-67
2023/03/02 09:32:37;;;;;;;33.15;23.00;;;2.20;99.90;;;;;;5062396;28;20169;-67
2023/03/02 09:35:03;;;;;;;35.17;25.27;;;2.20;99.90;;;;;;5077996;28;20054;-66
2023/03/02 09:37:29;;;;;;;35.72;25.60;;;2.30;99.90;;;;;;5076132;28;20485;-67
2023/03/02 09:39:54;;;;;;;34.22;24.63;;;2.30;99.90;;;;;;5082518;28;20131;-66
2023/03/02 09:42:47;;;;;;;31.58;23.75;;;2.40;99.90;;;;;;5083940;28;20422;-66
2023/03/02 09:45:22;;;;;;;33.60;22.70;;;2.40;99.90;;;;;;5081621;28;20344;-66
2023/03/02 09:48:09;;;;;;;32.45;24.20;;;2.50;99.90;;;;;;5068953;28;20131;-66
2023/03/02 09:50:39;;;;;;;32.28;23.52;;;2.50;99.90;;;;;;5066121;28;20051;-66
2023/03/02 09:53:33;;;;;;;34.05;24.58;;;2.50;99.90;;;;;;5079212;28;20048;-66
2023/03/02 09:56:00;;;;;;;31.03;22.53;;;2.60;99.90;;;;;;5066036;28;20410;-67
2023/03/02 09:58:37;;;;;;;34.03;24.95;;;2.80;99.90;;;;;;5054568;28;20442;-67
2023/03/02 10:01:10;;;;;;;33.25;23.48;;;2.70;99.90;;;;;;5088136;28;20433;-67
2023/03/02 10:03:49;;;;;;;33.28;24.17;;;2.80;99.90;;;;;;5068016;28;20451;-68
2023/03/02 10:06:14;;;;;;;33.60;23.33;;;2.90;99.90;;;;;;5081907;28;20482;-67
2023/03/02 10:08:42;;;;;;;36.05;23.25;;;2.90;99.90;;;;;;5072625;28;20123;-67
2023/03/02 10:11:26;;;;;;;33.38;24.08;;;3.00;99.90;;;;;;5050618;28;20075;-66
2023/03/02 10:14:11;;;;;;;32.83;23.90;;;3.00;99.90;;;;;;5090242;28;20054;-66
2023/03/02 10:16:51;;;;;;;29.95;23.35;;;3.00;99.90;;;;;;5087080;28;20051;-67
2023/03/02 10:19:16;;;;;;;31.45;24.23;;;3.00;99.90;;;;;;5065708;28;20460;-67
2023/03/02 10:21:49;;;;;;;29.45;23.33;;;3.00;99.90;;;;;;5086971;28;20371;-67
2023/03/02 10:24:38;;;;;;;32.10;23.95;;;3.10;99.90;;;;;;5084401;28;20384;-67
2023/03/02 10:27:12;;;;;;;35.03;24.63;;;3.10;99.90;;;;;;5073955;28;20036;-67
2023/03/02 10:29:56;;;;;;;32.60;24.27;;;3.20;99.90;;;;;;5088556;28;20428;-67
2023/03/02 10:32:26;;;;;;;32.45;23.90;;;3.20;99.90;;;;;;5086969;28;20506;-67
2023/03/02 10:34:52;;;;;;;31.83;24.10;;;3.30;99.90;;;;;;5094922;28;20475;-66
2023/03/02 10:37:23;;;;;;;31.80;24.33;;;3.30;99.90;;;;;;5089379;28;20036;-67
2023/03/02 10:39:52;;;;;;;32.15;24.90;;;3.40;99.90;;;;;;5075979;28;20460;-67
2023/03/02 10:42:39;;;;;;;30.17;24.67;;;3.50;99.90;;;;;;5088134;28;20123;-67
2023/03/02 10:45:28;;;;;;;33.53;24.20;;;3.60;99.90;;;;;;5081499;28;20037;-67
2023/03/02 10:48:00;;;;;;;31.50;24.83;;;3.60;99.90;;;;;;5086743;28;20040;-67
2023/03/02 10:50:26;;;;;;;28.90;24.10;;;3.50;99.90;;;;;;5069700;28;20040;-67
2023/03/02 10:52:52;;;;;;;32.90;24.20;;;3.60;99.90;;;;;;5087326;28;20056;-67
2023/03/02 10:55:17;;;;;;;29.58;22.75;;;3.60;99.90;;;;;;5070952;28;20086;-67
2023/03/02 10:57:45;;;;;;;28.55;23.17;;;3.60;99.90;;;;;;5086328;28;20440;-67
2023/03/02 11:00:24;;;;;;;30.88;24.15;;;3.80;99.90;;;;;;5084527;28;20311;-67
2023/03/02 11:02:51;;;;;;;30.70;23.88;;;3.80;99.90;;;;;;5085387;28;20044;-67
2023/03/02 11:05:16;;;;;;;31.02;24.13;;;3.90;99.90;;;;;;5084631;28;20127;-67
2023/03/02 11:07:52;;;;;;;29.15;24.27;;;4.00;99.90;;;;;;5086953;28;20131;-67
2023/03/02 11:10:20;;;;;;;29.63;24.92;;;4.00;99.90;;;;;;5069976;28;20546;-67
2023/03/02 11:12:49;;;;;;;28.35;23.25;;;4.20;99.90;;;;;;5080274;28;20044;-67
2023/03/02 11:15:35;;;;;;;29.17;23.30;;;4.40;99.90;;;;;;5084368;28;20048;-67
2023/03/02 11:18:27;;;;;;;31.25;23.58;;;4.50;99.90;;;;;;5088794;28;20098;-67
2023/03/02 11:21:16;;;;;;;28.52;23.60;;;4.50;99.90;;;;;;5068474;28;20040;-67
2023/03/02 11:24:06;;;;;;;28.27;23.13;;;4.60;99.90;;;;;;5084976;28;20054;-67
2023/03/02 11:26:43;;;;;;;30.13;23.73;;;4.60;99.90;;;;;;5087680;28;20465;-67
2023/03/02 11:29:28;;;;;;;27.85;23.33;;;4.80;99.90;;;;;;5084959;28;20047;-67
2023/03/02 11:32:14;;;;;;;30.15;23.98;;;4.90;99.90;;;;;;5065307;28;20055;-67
2023/03/02 11:34:50;;;;;;;29.00;22.98;;;5.00;99.90;;;;;;5086685;28;20032;-68
2023/03/02 11:37:33;;;;;;;29.67;23.48;;;4.90;99.90;;;;;;5070120;28;20036;-68
2023/03/02 11:40:08;;;;;;;29.92;23.48;;;4.90;99.90;;;;;;5069366;28;20108;-68
2023/03/02 11:42:39;;;;;;;28.98;22.70;;;4.90;99.90;;;;;;5068294;28;20032;-68
2023/03/02 11:45:44;;;;;;;30.40;24.60;;;4.80;99.90;;;;;;5084057;28;20503;-68
2023/03/02 11:48:34;;;;;;;30.25;24.15;;;4.90;99.90;;;;;;5079861;28;20078;-68
2023/03/02 11:51:13;;;;;;;27.17;22.00;;;5.00;99.90;;;;;;5068271;28;20044;-68
2023/03/02 11:54:03;;;;;;;31.23;24.10;;;5.00;99.90;;;;;;5089774;28;20044;-68
2023/03/02 11:56:32;;;;;;;27.15;21.45;;;5.00;99.90;;;;;;5074841;28;20089;-68
2023/03/02 11:59:05;;;;;;;29.70;23.90;;;4.90;99.90;;;;;;5065522;28;20097;-68
2023/03/02 12:01:34;;;;;;;27.02;21.67;;;4.80;99.90;;;;;;5084274;28;20048;-68
2023/03/02 12:04:09;;;;;;;26.67;22.38;;;4.80;99.90;;;;;;5074581;28;20044;-68
2023/03/02 12:06:39;;;;;;;28.85;22.70;;;4.90;99.90;;;;;;5067925;28;20047;-68
2023/03/02 12:09:25;;;;;;;28.25;22.77;;;4.80;99.90;;;;;;5083446;28;20435;-68
2023/03/02 12:11:59;;;;;;;27.92;21.35;;;4.80;99.90;;;;;;5070408;28;20082;-68
2023/03/02 12:14:36;;;;;;;31.15;23.73;;;4.90;99.90;;;;;;5083935;28;20072;-68
2023/03/02 12:17:25;;;;;;;27.55;22.33;;;4.90;99.90;;;;;;5084935;28;20078;-68
2023/03/02 12:19:54;;;;;;;28.00;21.63;;;4.90;99.90;;;;;;5071448;28;20086;-68
2023/03/02 12:22:29;;;;;;;27.23;22.33;;;4.90;99.90;;;;;;5053663;28;20476;-68
2023/03/02 12:25:25;;;;;;;29.92;22.55;;;4.80;99.90;;;;;;5088188;28;20028;-67
2023/03/02 12:27:53;;;;;;;27.45;22.65;;;4.90;99.90;;;;;;5087154;28;20693;-67
2023/03/02 12:30:25;;;;;;;28.63;23.40;;;4.90;99.90;;;;;;5084088;28;20520;-67
2023/03/02 12:33:09;;;;;;;30.95;24.15;;;4.90;99.90;;;;;;5068505;28;20075;-67
2023/03/02 12:35:34;;;;;;;28.63;22.58;;;4.90;99.90;;;;;;5081870;28;20488;-68
2023/03/02 12:38:16;;;;;;;28.40;22.13;;;4.90;99.90;;;;;;5081762;28;20033;-67
2023/03/02 12:41:02;;;;;;;27.77;22.40;;;5.00;99.90;;;;;;5085598;28;20147;-67
2023/03/02 12:43:31;;;;;;;30.00;22.60;;;5.20;99.90;;;;;;5084396;28;20114;-67
2023/03/02 12:46:19;;;;;;;29.73;22.35;;;5.10;99.90;;;;;;5063729;28;20066;-67
2023/03/02 12:49:11;;;;;;;30.10;23.23;;;5.10;99.90;;;;;;5071632;28;20047;-67